createdAt,value
2023-03-05T06:02:50.335Z,85.70
2023-03-05T06:07:52.756Z,84.92
2023-03-05T06:12:54.532Z,85.16
2023-03-05T06:17:58.023Z,87.98
2023-03-05T06:22:59.722Z,82.56
2023-03-05T06:28:01.398Z,78.54
2023-03-05T06:33:03.301Z,72.47
2023-03-05T06:38:06.472Z,67.11
2023-03-05T06:43:08.353Z,60.70
2023-03-05T06:48:11.254Z,53.96
2023-03-05T06:53:12.922Z,49.41
2023-03-05T06:58:14.602Z,45.37
2023-03-05T07:03:16.999Z,40.76
2023-03-05T07:08:18.861Z,38.05
2023-03-05T07:13:20.634Z,36.33
2023-03-05T07:18:22.514Z,33.89
2023-03-05T07:23:24.287Z,32.02
2023-03-05T07:28:25.956Z,30.49
2023-03-05T07:33:28.245Z,29.04
2023-03-05T07:38:33.203Z,27.24
2023-03-05T07:43:35.991Z,26.43
2023-03-05T07:48:38.277Z,25.10
2023-03-05T07:53:40.562Z,24.54
2023-03-05T07:58:42.544Z,24.44
2023-03-05T08:03:45.074Z,22.97
2023-03-05T08:08:47.014Z,22.39
2023-03-05T08:13:49.208Z,21.44
2023-03-05T08:18:55.426Z,21.20
2023-03-05T08:23:57.964Z,21.65
2023-03-05T08:29:00.251Z,21.34
2023-03-05T08:34:03.151Z,20.78
2023-03-05T08:39:06.460Z,19.66
2023-03-05T08:44:08.750Z,19.89
2023-03-05T08:49:10.646Z,20.02
2023-03-05T08:54:12.816Z,20.43
2023-03-05T08:59:14.697Z,20.77
2023-03-05T09:04:17.177Z,20.45
2023-03-05T09:09:21.204Z,20.71
2023-03-05T09:14:23.756Z,21.11
2023-03-05T09:19:30.132Z,20.92
2023-03-05T09:24:32.435Z,20.80
2023-03-05T09:29:34.868Z,21.23
2023-03-05T09:34:37.546Z,21.52
2023-03-05T09:39:40.036Z,21.82
2023-03-05T09:45:11.100Z,22.58
2023-03-05T09:50:45.645Z,23.31
2023-03-05T09:55:58.374Z,24.98
2023-03-05T10:01:01.686Z,24.95
2023-03-05T10:06:15.144Z,24.86
2023-03-05T10:11:37.800Z,24.48
2023-03-05T10:17:10.086Z,23.88
2023-03-05T10:22:24.852Z,22.99
2023-03-05T10:27:42.166Z,24.41
2023-03-05T10:33:12.236Z,26.77
2023-03-05T10:38:24.294Z,28.63
2023-03-05T10:43:47.754Z,30.43
2023-03-05T10:48:53.101Z,32.48
2023-03-05T10:54:20.473Z,34.63
2023-03-05T10:59:22.756Z,36.55
2023-03-05T11:04:29.459Z,38.49
2023-03-05T11:09:33.980Z,39.76
2023-03-05T11:14:39.523Z,40.69
2023-03-05T11:19:41.343Z,40.94
2023-03-05T11:24:46.222Z,40.32
2023-03-05T11:29:50.482Z,40.46
2023-03-05T11:34:54.219Z,39.28
2023-03-05T11:40:19.752Z,39.65
2023-03-05T11:45:24.387Z,41.74
2023-03-05T11:50:32.277Z,43.39
2023-03-05T11:55:47.501Z,44.66
2023-03-05T12:00:53.678Z,45.84
2023-03-05T12:06:23.066Z,49.60
2023-03-05T12:11:30.833Z,53.39
2023-03-05T12:16:45.698Z,55.99
2023-03-05T12:21:50.852Z,56.75
2023-03-05T12:26:52.831Z,56.48
2023-03-05T12:31:55.429Z,56.80
2023-03-05T12:36:57.197Z,56.97
2023-03-05T12:41:59.177Z,54.90
2023-03-05T12:47:18.898Z,52.52
2023-03-05T12:52:25.478Z,52.50
2023-03-05T12:57:31.310Z,51.23
2023-03-05T13:02:42.727Z,49.84
2023-03-05T13:07:45.213Z,48.45
2023-03-05T13:12:54.181Z,47.64
2023-03-05T13:18:07.664Z,47.44
2023-03-05T13:23:23.308Z,46.14
2023-03-05T13:28:26.635Z,45.91
2023-03-05T13:33:29.718Z,46.08
2023-03-05T13:38:46.903Z,45.93
2023-03-05T13:43:50.790Z,44.63
2023-03-05T13:48:52.801Z,44.03
2023-03-05T13:53:55.756Z,44.36
2023-03-05T13:58:59.214Z,43.98
2023-03-05T14:04:04.431Z,43.98
2023-03-05T14:09:17.665Z,44.37
2023-03-05T14:14:21.452Z,44.87
2023-03-05T14:19:36.571Z,44.96
2023-03-05T14:24:38.367Z,44.84
2023-03-05T14:29:46.268Z,45.61
2023-03-05T14:34:55.413Z,46.30
2023-03-05T14:40:07.454Z,46.63
2023-03-05T14:45:21.165Z,46.11
2023-03-05T14:50:28.702Z,46.38
2023-03-05T14:55:33.223Z,47.06
2023-03-05T15:00:39.421Z,47.34
2023-03-05T15:05:43.319Z,47.45
2023-03-05T15:10:45.423Z,47.95
2023-03-05T15:15:49.112Z,48.29
2023-03-05T15:20:53.010Z,48.17
2023-03-05T15:25:55.810Z,48.04
2023-03-05T15:30:59.766Z,48.09
2023-03-05T15:36:03.615Z,48.37
2023-03-05T15:41:07.017Z,48.90
2023-03-05T15:46:09.058Z,49.35
2023-03-05T15:51:11.278Z,49.97
2023-03-05T15:56:18.599Z,51.17
2023-03-05T16:01:23.170Z,56.80
2023-03-05T16:06:26.347Z,59.90
2023-03-05T16:11:30.081Z,61.98
2023-03-05T16:16:34.396Z,63.68
2023-03-05T16:21:37.296Z,65.38
2023-03-05T16:26:41.836Z,66.88
2023-03-05T16:31:45.003Z,68.08
2023-03-05T16:36:52.723Z,70.29
2023-03-05T16:41:55.149Z,71.62
2023-03-05T16:46:57.124Z,72.40
2023-03-05T16:52:01.334Z,73.58
2023-03-05T16:57:08.991Z,74.38
2023-03-05T17:02:13.026Z,74.27
2023-03-05T17:07:16.718Z,74.93
2023-03-05T17:12:20.236Z,76.52
2023-03-05T17:17:22.308Z,76.86
2023-03-05T17:22:24.422Z,78.18
2023-03-05T17:27:27.501Z,78.86
2023-03-05T17:32:29.700Z,79.01
2023-03-05T17:37:31.767Z,80.17
2023-03-05T17:42:33.437Z,80.49
2023-03-05T17:47:37.877Z,80.80
2023-03-05T17:52:41.617Z,81.74
2023-03-05T17:57:44.287Z,82.19
2023-03-05T18:02:47.884Z,82.72
2023-03-05T18:07:52.550Z,82.92
2023-03-05T18:12:55.452Z,83.39
2023-03-05T18:17:58.688Z,83.87
2023-03-05T18:23:04.274Z,84.26
2023-03-05T18:28:13.010Z,84.77
2023-03-05T18:33:23.810Z,85.19
2023-03-05T18:38:28.164Z,85.78
2023-03-05T18:43:29.986Z,86.30
2023-03-05T18:48:32.036Z,87.18
2023-03-05T18:53:34.008Z,87.50
2023-03-05T18:58:37.669Z,88.02
2023-03-05T19:03:40.221Z,88.51
2023-03-05T19:08:42.816Z,89.21
2023-03-05T19:13:50.300Z,89.43
2023-03-05T19:19:19.341Z,89.59
2023-03-05T19:24:25.349Z,90.15
2023-03-05T19:29:32.522Z,90.65
2023-03-05T19:34:35.523Z,91.14
2023-03-05T19:39:37.814Z,91.66
2023-03-05T19:44:40.298Z,92.03
2023-03-05T19:49:42.680Z,92.26
2023-03-05T19:54:44.863Z,92.77
2023-03-05T19:59:47.048Z,92.74
2023-03-05T20:04:51.807Z,92.81
2023-03-05T20:09:56.160Z,92.92
2023-03-05T20:14:58.415Z,93.24
2023-03-05T20:20:02.032Z,93.22
2023-03-05T20:25:08.212Z,93.34
2023-03-05T20:30:14.820Z,93.51
2023-03-05T20:35:19.822Z,93.83
2023-03-05T20:40:23.376Z,94.15
2023-03-05T20:45:26.882Z,94.28
2023-03-05T20:50:30.538Z,94.61
2023-03-05T20:55:32.560Z,94.81
2023-03-05T21:00:35.406Z,95.53
2023-03-05T21:05:37.572Z,96.07
2023-03-05T21:10:40.182Z,96.49
2023-03-05T21:15:42.654Z,96.59
2023-03-05T21:20:44.738Z,96.69
2023-03-05T21:25:46.699Z,96.95
2023-03-05T21:30:53.964Z,97.39
2023-03-05T21:35:59.275Z,97.59
2023-03-05T21:41:02.574Z,97.87
2023-03-05T21:46:04.818Z,98.65
2023-03-05T21:51:22.726Z,99.54
2023-03-05T21:56:30.736Z,99.43
2023-03-05T22:01:32.733Z,98.97
2023-03-05T22:06:34.693Z,98.78
2023-03-05T22:11:37.078Z,98.78
2023-03-05T22:16:39.083Z,98.91
2023-03-05T22:21:40.932Z,98.98
2023-03-05T22:26:42.725Z,98.98
2023-03-05T22:31:45.313Z,98.59
2023-03-05T22:36:47.278Z,98.49
2023-03-05T22:41:49.055Z,98.44
2023-03-05T22:46:50.935Z,98.60
2023-03-05T22:51:52.702Z,98.40
2023-03-05T22:56:54.590Z,98.08
2023-03-05T23:01:56.868Z,97.97
2023-03-05T23:06:58.649Z,97.92
2023-03-05T23:12:00.937Z,98.03
2023-03-05T23:17:04.148Z,98.51
2023-03-05T23:22:07.764Z,98.81
2023-03-05T23:27:14.149Z,98.58
2023-03-05T23:32:16.567Z,98.31
2023-03-05T23:37:18.312Z,98.43
2023-03-05T23:42:20.083Z,98.57
2023-03-05T23:47:21.869Z,98.76
2023-03-05T23:52:23.633Z,98.94
2023-03-05T23:57:25.611Z,99.13
